XBFGP MMMM-MMZH
Flight info
| Callsign | XBFGP |
|---|---|
| Flight time | 0h 31m |
| Altitude | 14500 |
| Route | MMMM DCT MMZH |
| Aircraft | TBM9/L-V/N |
Departure
| Time | 2026-05-06 17:28 |
|---|---|
| Airport | General Francisco J. Mujica International Airport (MMMM) |
Arrival
| Time | 2026-05-06 17:59 |
|---|---|
| Airport | Ixtapa-Zihuatanejo International Airport (MMZH) |
| Time | Latitude | Longitude | Altitude | Speed | Heading |
|---|---|---|---|---|---|
| 2026-05-06 17:23 | 19.84521 | -101.02669 | 6034 ft | 0 kts | 142° |
| 2026-05-06 17:26 | 19.84524 | -101.02672 | 6034 ft | 4 kts | 129° |
| 2026-05-06 17:26 | 19.84522 | -101.02684 | 6034 ft | 3 kts | 346° |
| 2026-05-06 17:26 | 19.84715 | -101.02715 | 6033 ft | 41 kts | 27° |
| 2026-05-06 17:26 | 19.84907 | -101.02649 | 6034 ft | 0 kts | 249° |
| 2026-05-06 17:27 | 19.84900 | -101.02663 | 6035 ft | 17 kts | 236° |
| 2026-05-06 17:27 | 19.84709 | -101.02946 | 6033 ft | 74 kts | 234° |
| 2026-05-06 17:27 | 19.84332 | -101.03500 | 6057 ft | 105 kts | 234° |
| 2026-05-06 17:27 | 19.83925 | -101.04056 | 6394 ft | 96 kts | 229° |
| 2026-05-06 17:28 | 19.83345 | -101.04167 | 6720 ft | 97 kts | 140° |
| 2026-05-06 17:28 | 19.82835 | -101.03655 | 7158 ft | 108 kts | 148° |
| 2026-05-06 17:28 | 19.82094 | -101.03276 | 7543 ft | 129 kts | 168° |
| 2026-05-06 17:28 | 19.81118 | -101.03330 | 7959 ft | 154 kts | 191° |
| 2026-05-06 17:29 | 19.79985 | -101.03535 | 8385 ft | 176 kts | 191° |
| 2026-05-06 17:29 | 19.78705 | -101.03779 | 8805 ft | 197 kts | 191° |
| 2026-05-06 17:29 | 19.77307 | -101.04055 | 9219 ft | 211 kts | 192° |
| 2026-05-06 17:29 | 19.75819 | -101.04351 | 9623 ft | 223 kts | 192° |
| 2026-05-06 17:30 | 19.74259 | -101.04655 | 10019 ft | 232 kts | 191° |
| 2026-05-06 17:30 | 19.72650 | -101.04971 | 10405 ft | 239 kts | 191° |
| 2026-05-06 17:30 | 19.71002 | -101.05296 | 10787 ft | 243 kts | 191° |
| 2026-05-06 17:30 | 19.69348 | -101.05620 | 11159 ft | 246 kts | 191° |
| 2026-05-06 17:31 | 19.67653 | -101.05950 | 11538 ft | 249 kts | 191° |
| 2026-05-06 17:31 | 19.65939 | -101.06286 | 11914 ft | 252 kts | 192° |
| 2026-05-06 17:31 | 19.64207 | -101.06623 | 12288 ft | 253 kts | 191° |
| 2026-05-06 17:31 | 19.62469 | -101.06965 | 12661 ft | 254 kts | 191° |
| 2026-05-06 17:32 | 19.60722 | -101.07307 | 13042 ft | 256 kts | 192° |
| 2026-05-06 17:32 | 19.58968 | -101.07651 | 13414 ft | 257 kts | 192° |
| 2026-05-06 17:32 | 19.57203 | -101.07999 | 13789 ft | 258 kts | 191° |
| 2026-05-06 17:32 | 19.55428 | -101.08341 | 14152 ft | 260 kts | 191° |
| 2026-05-06 17:33 | 19.53608 | -101.08698 | 14202 ft | 272 kts | 192° |
| 2026-05-06 17:33 | 19.51710 | -101.09078 | 14201 ft | 281 kts | 192° |
| 2026-05-06 17:33 | 19.49791 | -101.09454 | 14205 ft | 287 kts | 191° |
| 2026-05-06 17:33 | 19.47818 | -101.09837 | 14207 ft | 290 kts | 191° |
| 2026-05-06 17:34 | 19.45829 | -101.10225 | 14210 ft | 292 kts | 191° |
| 2026-05-06 17:34 | 19.43962 | -101.10591 | 14210 ft | 293 kts | 191° |
| 2026-05-06 17:34 | 19.41952 | -101.10982 | 14210 ft | 294 kts | 191° |
| 2026-05-06 17:34 | 19.39939 | -101.11375 | 14207 ft | 294 kts | 191° |
| 2026-05-06 17:35 | 19.37950 | -101.11763 | 14206 ft | 294 kts | 191° |
| 2026-05-06 17:35 | 19.35932 | -101.12156 | 14207 ft | 295 kts | 191° |
| 2026-05-06 17:35 | 19.33911 | -101.12548 | 14204 ft | 295 kts | 191° |
| 2026-05-06 17:36 | 19.29872 | -101.13339 | 14201 ft | 295 kts | 191° |
| 2026-05-06 17:36 | 19.27855 | -101.13730 | 14200 ft | 294 kts | 191° |
| 2026-05-06 17:36 | 19.26655 | -101.13962 | 14198 ft | 294 kts | 191° |
| 2026-05-06 17:36 | 19.24642 | -101.14354 | 14196 ft | 294 kts | 192° |
| 2026-05-06 17:37 | 19.22634 | -101.14747 | 14195 ft | 294 kts | 191° |
| 2026-05-06 17:37 | 19.20626 | -101.15137 | 14194 ft | 294 kts | 191° |
| 2026-05-06 17:37 | 19.18614 | -101.15528 | 14192 ft | 294 kts | 191° |
| 2026-05-06 17:37 | 19.16601 | -101.15919 | 14195 ft | 294 kts | 191° |
| 2026-05-06 17:38 | 19.14585 | -101.16315 | 14193 ft | 294 kts | 191° |
| 2026-05-06 17:38 | 19.12577 | -101.16706 | 14194 ft | 294 kts | 191° |
| 2026-05-06 17:38 | 19.10568 | -101.17093 | 14194 ft | 294 kts | 191° |
| 2026-05-06 17:38 | 19.08557 | -101.17486 | 14196 ft | 293 kts | 191° |
| 2026-05-06 17:39 | 19.06574 | -101.17871 | 14195 ft | 293 kts | 191° |
| 2026-05-06 17:39 | 19.04572 | -101.18260 | 14193 ft | 293 kts | 191° |
| 2026-05-06 17:39 | 19.02566 | -101.18648 | 14193 ft | 292 kts | 191° |
| 2026-05-06 17:39 | 19.00565 | -101.19037 | 14193 ft | 292 kts | 191° |
| 2026-05-06 17:40 | 18.98568 | -101.19426 | 14195 ft | 292 kts | 191° |
| 2026-05-06 17:40 | 18.96571 | -101.19813 | 14193 ft | 292 kts | 191° |
| 2026-05-06 17:40 | 18.94575 | -101.20200 | 14194 ft | 292 kts | 191° |
| 2026-05-06 17:40 | 18.92574 | -101.20588 | 14195 ft | 292 kts | 191° |
| 2026-05-06 17:41 | 18.90573 | -101.20976 | 14194 ft | 292 kts | 191° |
| 2026-05-06 17:41 | 18.88574 | -101.21366 | 14193 ft | 292 kts | 191° |
| 2026-05-06 17:41 | 18.86571 | -101.21752 | 14193 ft | 292 kts | 191° |
| 2026-05-06 17:41 | 18.84569 | -101.22140 | 14194 ft | 292 kts | 191° |
| 2026-05-06 17:42 | 18.82597 | -101.22524 | 14195 ft | 292 kts | 191° |
| 2026-05-06 17:42 | 18.80575 | -101.22914 | 14193 ft | 291 kts | 191° |
| 2026-05-06 17:42 | 18.78581 | -101.23300 | 14193 ft | 291 kts | 191° |
| 2026-05-06 17:42 | 18.76611 | -101.23681 | 14194 ft | 291 kts | 191° |
| 2026-05-06 17:43 | 18.74616 | -101.24067 | 14193 ft | 292 kts | 191° |
| 2026-05-06 17:43 | 18.72621 | -101.24454 | 14193 ft | 292 kts | 191° |
| 2026-05-06 17:43 | 18.70624 | -101.24840 | 14193 ft | 292 kts | 191° |
| 2026-05-06 17:43 | 18.68620 | -101.25228 | 14193 ft | 292 kts | 191° |
| 2026-05-06 17:44 | 18.66625 | -101.25614 | 14196 ft | 292 kts | 191° |
| 2026-05-06 17:44 | 18.64623 | -101.26000 | 14193 ft | 292 kts | 191° |
| 2026-05-06 17:44 | 18.62624 | -101.26388 | 14195 ft | 292 kts | 191° |
| 2026-05-06 17:44 | 18.60649 | -101.26770 | 14194 ft | 292 kts | 191° |
| 2026-05-06 17:45 | 18.58655 | -101.27155 | 14194 ft | 291 kts | 191° |
| 2026-05-06 17:45 | 18.56658 | -101.27541 | 14193 ft | 291 kts | 191° |
| 2026-05-06 17:45 | 18.54664 | -101.27926 | 14194 ft | 291 kts | 191° |
| 2026-05-06 17:45 | 18.52673 | -101.28311 | 13588 ft | 289 kts | 189° |
| 2026-05-06 17:46 | 18.50701 | -101.28689 | 13704 ft | 287 kts | 188° |
| 2026-05-06 17:46 | 18.48737 | -101.29066 | 13828 ft | 286 kts | 188° |
| 2026-05-06 17:46 | 18.46776 | -101.29444 | 13937 ft | 286 kts | 188° |
| 2026-05-06 17:46 | 18.44822 | -101.29823 | 14041 ft | 285 kts | 188° |
| 2026-05-06 17:47 | 18.42899 | -101.30193 | 14129 ft | 285 kts | 188° |
| 2026-05-06 17:47 | 18.40936 | -101.30572 | 14131 ft | 288 kts | 188° |
| 2026-05-06 17:47 | 18.38953 | -101.30957 | 14132 ft | 291 kts | 188° |
| 2026-05-06 17:47 | 18.36955 | -101.31342 | 14135 ft | 292 kts | 188° |
| 2026-05-06 17:48 | 18.34949 | -101.31728 | 14140 ft | 293 kts | 188° |
| 2026-05-06 17:48 | 18.32940 | -101.32111 | 14142 ft | 294 kts | 189° |
| 2026-05-06 17:48 | 18.30923 | -101.32506 | 14137 ft | 295 kts | 189° |
| 2026-05-06 17:48 | 18.28926 | -101.32896 | 14143 ft | 295 kts | 189° |
| 2026-05-06 17:49 | 18.26900 | -101.33278 | 14145 ft | 296 kts | 188° |
| 2026-05-06 17:49 | 18.24870 | -101.33665 | 14155 ft | 296 kts | 188° |
| 2026-05-06 17:49 | 18.22838 | -101.34058 | 14157 ft | 297 kts | 189° |
| 2026-05-06 17:49 | 18.20809 | -101.34448 | 14161 ft | 296 kts | 188° |
| 2026-05-06 17:50 | 18.18776 | -101.34846 | 14159 ft | 297 kts | 189° |
| 2026-05-06 17:50 | 18.16748 | -101.35234 | 14159 ft | 296 kts | 188° |
| 2026-05-06 17:50 | 18.14723 | -101.35614 | 14175 ft | 296 kts | 188° |
| 2026-05-06 17:50 | 18.12701 | -101.36010 | 14164 ft | 294 kts | 189° |
| 2026-05-06 17:51 | 18.10681 | -101.36413 | 14174 ft | 294 kts | 188° |
| 2026-05-06 17:51 | 18.08663 | -101.36781 | 14178 ft | 294 kts | 188° |
| 2026-05-06 17:51 | 18.06651 | -101.37156 | 14179 ft | 293 kts | 188° |
| 2026-05-06 17:51 | 18.04640 | -101.37549 | 14183 ft | 293 kts | 188° |
| 2026-05-06 17:52 | 18.02649 | -101.37942 | 14179 ft | 295 kts | 188° |
| 2026-05-06 17:52 | 18.00625 | -101.38335 | 14181 ft | 295 kts | 188° |
| 2026-05-06 17:52 | 17.98609 | -101.38712 | 14252 ft | 292 kts | 188° |
| 2026-05-06 17:52 | 17.96619 | -101.39091 | 14234 ft | 294 kts | 188° |
| 2026-05-06 17:53 | 17.94541 | -101.39498 | 13781 ft | 308 kts | 189° |
| 2026-05-06 17:53 | 17.92407 | -101.39922 | 13284 ft | 315 kts | 188° |
| 2026-05-06 17:53 | 17.90244 | -101.40334 | 12788 ft | 316 kts | 188° |
| 2026-05-06 17:53 | 17.88103 | -101.40732 | 12306 ft | 317 kts | 189° |
| 2026-05-06 17:54 | 17.85931 | -101.41148 | 11823 ft | 318 kts | 189° |
| 2026-05-06 17:54 | 17.83761 | -101.41572 | 11347 ft | 316 kts | 189° |
| 2026-05-06 17:54 | 17.81597 | -101.41986 | 10885 ft | 316 kts | 189° |
| 2026-05-06 17:54 | 17.79438 | -101.42393 | 10418 ft | 314 kts | 189° |
| 2026-05-06 17:55 | 17.77291 | -101.42804 | 9958 ft | 313 kts | 190° |
| 2026-05-06 17:55 | 17.75141 | -101.43222 | 9346 ft | 315 kts | 191° |
| 2026-05-06 17:55 | 17.73024 | -101.43629 | 8725 ft | 294 kts | 191° |
| 2026-05-06 17:55 | 17.71122 | -101.43989 | 8114 ft | 264 kts | 190° |
| 2026-05-06 17:56 | 17.69379 | -101.44296 | 7506 ft | 244 kts | 191° |
| 2026-05-06 17:56 | 17.67754 | -101.44570 | 6911 ft | 230 kts | 185° |
| 2026-05-06 17:56 | 17.66227 | -101.44235 | 6302 ft | 224 kts | 153° |
| 2026-05-06 17:56 | 17.64985 | -101.43318 | 5721 ft | 193 kts | 146° |
| 2026-05-06 17:57 | 17.64080 | -101.42680 | 5105 ft | 135 kts | 148° |
| 2026-05-06 17:57 | 17.63298 | -101.42133 | 4427 ft | 135 kts | 148° |
| 2026-05-06 17:57 | 17.62491 | -101.41674 | 3753 ft | 132 kts | 165° |
| 2026-05-06 17:57 | 17.61613 | -101.41469 | 3072 ft | 126 kts | 175° |
| 2026-05-06 17:58 | 17.60810 | -101.41761 | 2398 ft | 126 kts | 217° |
| 2026-05-06 17:58 | 17.60342 | -101.42524 | 1715 ft | 125 kts | 247° |
| 2026-05-06 17:58 | 17.60156 | -101.43416 | 895 ft | 126 kts | 264° |
| 2026-05-06 17:58 | 17.60112 | -101.44307 | 271 ft | 117 kts | 273° |
| 2026-05-06 17:59 | 17.60137 | -101.45102 | 30 ft | 98 kts | 271° |
| 2026-05-06 17:59 | 17.60155 | -101.45801 | 25 ft | 83 kts | 271° |
| 2026-05-06 17:59 | 17.60327 | -101.46238 | 22 ft | 58 kts | 313° |
| 2026-05-06 17:59 | 17.60485 | -101.46349 | 22 ft | 23 kts | 270° |
| 2026-05-06 18:00 | 17.60559 | -101.46391 | 22 ft | 0 kts | 354° |